TAI382 SKBO-MSLP
Flight info
| Callsign | TAI382 |
|---|---|
| Flight time | 2h 28m |
| Altitude | 36000 |
| Route | VASIL2T VASIL UL423 ISEBA UG440 LIB UG436 ALTEG ALTEG2 |
| Aircraft | A320/M-SDE3FGHIRWY/LB1 |
Departure
| Time | 2026-04-24 19:34 |
|---|---|
| Airport | El Dorado International Airport (SKBO) |
Arrival
| Time | 2026-04-24 22:02 |
|---|---|
| Airport | El Salvador International Airport Saint Óscar Arnulfo Romero y Galdámez (MSLP) |
| Time | Latitude | Longitude | Altitude | Speed | Heading |
|---|---|---|---|---|---|
| 2026-04-24 19:15 | 4.70113 | -74.14445 | 8373 ft | 0 kts | 127° |
| 2026-04-24 19:24 | 4.70119 | -74.14454 | 8374 ft | 4 kts | 127° |
| 2026-04-24 19:25 | 4.70131 | -74.14469 | 8373 ft | 0 kts | 127° |
| 2026-04-24 19:27 | 4.70130 | -74.14469 | 8371 ft | 0 kts | 134° |
| 2026-04-24 19:28 | 4.70125 | -74.14475 | 8371 ft | 1 kts | 230° |
| 2026-04-24 19:28 | 4.70121 | -74.14508 | 8373 ft | 9 kts | 262° |
| 2026-04-24 19:28 | 4.70106 | -74.14553 | 8372 ft | 11 kts | 229° |
| 2026-04-24 19:28 | 4.70041 | -74.14602 | 8371 ft | 7 kts | 217° |
| 2026-04-24 19:29 | 4.69978 | -74.14649 | 8373 ft | 7 kts | 217° |
| 2026-04-24 19:29 | 4.69938 | -74.14680 | 8373 ft | 8 kts | 217° |
| 2026-04-24 19:29 | 4.69887 | -74.14719 | 8373 ft | 12 kts | 217° |
| 2026-04-24 19:30 | 4.69806 | -74.14780 | 8373 ft | 15 kts | 217° |
| 2026-04-24 19:30 | 4.69720 | -74.14799 | 8373 ft | 13 kts | 149° |
| 2026-04-24 19:30 | 4.69673 | -74.14735 | 8373 ft | 14 kts | 124° |
| 2026-04-24 19:30 | 4.69597 | -74.14631 | 8373 ft | 22 kts | 128° |
| 2026-04-24 19:31 | 4.69506 | -74.14511 | 8373 ft | 23 kts | 127° |
| 2026-04-24 19:31 | 4.69400 | -74.14365 | 8373 ft | 28 kts | 129° |
| 2026-04-24 19:31 | 4.69283 | -74.14218 | 8373 ft | 25 kts | 127° |
| 2026-04-24 19:31 | 4.69188 | -74.14096 | 8371 ft | 16 kts | 135° |
| 2026-04-24 19:32 | 4.69103 | -74.14116 | 8373 ft | 12 kts | 217° |
| 2026-04-24 19:32 | 4.69050 | -74.14155 | 8372 ft | 5 kts | 217° |
| 2026-04-24 19:32 | 4.69026 | -74.14183 | 8374 ft | 6 kts | 239° |
| 2026-04-24 19:32 | 4.69018 | -74.14223 | 8371 ft | 7 kts | 278° |
| 2026-04-24 19:33 | 4.69069 | -74.14293 | 8374 ft | 28 kts | 306° |
| 2026-04-24 19:33 | 4.69338 | -74.14649 | 8371 ft | 98 kts | 307° |
| 2026-04-24 19:33 | 4.69878 | -74.15363 | 8375 ft | 158 kts | 307° |
| 2026-04-24 19:33 | 4.70647 | -74.16370 | 8565 ft | 193 kts | 306° |
| 2026-04-24 19:34 | 4.71459 | -74.17434 | 9543 ft | 189 kts | 305° |
| 2026-04-24 19:34 | 4.72233 | -74.18457 | 9877 ft | 187 kts | 306° |
| 2026-04-24 19:34 | 4.72988 | -74.19537 | 10218 ft | 187 kts | 292° |
| 2026-04-24 19:34 | 4.73366 | -74.20762 | 10535 ft | 187 kts | 285° |
| 2026-04-24 19:35 | 4.73713 | -74.22019 | 10824 ft | 187 kts | 285° |
| 2026-04-24 19:35 | 4.74062 | -74.23281 | 11063 ft | 188 kts | 285° |
| 2026-04-24 19:35 | 4.74416 | -74.24547 | 11289 ft | 189 kts | 285° |
| 2026-04-24 19:35 | 4.74703 | -74.25848 | 11430 ft | 195 kts | 272° |
| 2026-04-24 19:36 | 4.74587 | -74.27219 | 11543 ft | 202 kts | 258° |
| 2026-04-24 19:36 | 4.74291 | -74.28652 | 11655 ft | 211 kts | 258° |
| 2026-04-24 19:36 | 4.73992 | -74.30125 | 11766 ft | 220 kts | 258° |
| 2026-04-24 19:36 | 4.73686 | -74.31638 | 11874 ft | 229 kts | 258° |
| 2026-04-24 19:37 | 4.73360 | -74.33252 | 11981 ft | 237 kts | 258° |
| 2026-04-24 19:37 | 4.73029 | -74.34892 | 12057 ft | 249 kts | 258° |
| 2026-04-24 19:37 | 4.72679 | -74.36630 | 12155 ft | 260 kts | 259° |
| 2026-04-24 19:37 | 4.72315 | -74.38442 | 12260 ft | 271 kts | 259° |
| 2026-04-24 19:38 | 4.71936 | -74.40329 | 12361 ft | 281 kts | 259° |
| 2026-04-24 19:38 | 4.71544 | -74.42276 | 12460 ft | 290 kts | 259° |
| 2026-04-24 19:38 | 4.71134 | -74.44282 | 12564 ft | 297 kts | 258° |
| 2026-04-24 19:38 | 4.71000 | -74.46362 | 12658 ft | 303 kts | 279° |
| 2026-04-24 19:39 | 4.71704 | -74.48360 | 12760 ft | 309 kts | 300° |
| 2026-04-24 19:39 | 4.72846 | -74.50191 | 12987 ft | 308 kts | 302° |
| 2026-04-24 19:39 | 4.73990 | -74.52004 | 13284 ft | 308 kts | 301° |
| 2026-04-24 19:39 | 4.75133 | -74.53823 | 13568 ft | 309 kts | 301° |
| 2026-04-24 19:40 | 4.76276 | -74.55646 | 13809 ft | 309 kts | 301° |
| 2026-04-24 19:40 | 4.77437 | -74.57504 | 13951 ft | 323 kts | 301° |
| 2026-04-24 19:40 | 4.78665 | -74.59470 | 14070 ft | 342 kts | 301° |
| 2026-04-24 19:40 | 4.79959 | -74.61544 | 14309 ft | 356 kts | 301° |
| 2026-04-24 19:41 | 4.81279 | -74.63667 | 14783 ft | 361 kts | 301° |
| 2026-04-24 19:41 | 4.82610 | -74.65811 | 15275 ft | 364 kts | 301° |
| 2026-04-24 19:41 | 4.83952 | -74.67973 | 15804 ft | 367 kts | 301° |
| 2026-04-24 19:41 | 4.85301 | -74.70136 | 16364 ft | 368 kts | 301° |
| 2026-04-24 19:42 | 4.86662 | -74.72314 | 16919 ft | 370 kts | 301° |
| 2026-04-24 19:42 | 4.88031 | -74.74509 | 17442 ft | 372 kts | 301° |
| 2026-04-24 19:42 | 4.89409 | -74.76722 | 18577 ft | 375 kts | 301° |
| 2026-04-24 19:42 | 4.90798 | -74.78957 | 18342 ft | 380 kts | 301° |
| 2026-04-24 19:43 | 4.92202 | -74.81211 | 18745 ft | 383 kts | 301° |
| 2026-04-24 19:43 | 4.93621 | -74.83485 | 19147 ft | 386 kts | 301° |
| 2026-04-24 19:43 | 4.95048 | -74.85779 | 19553 ft | 389 kts | 301° |
| 2026-04-24 19:43 | 4.96487 | -74.88090 | 19966 ft | 392 kts | 301° |
| 2026-04-24 19:44 | 4.97938 | -74.90416 | 20388 ft | 395 kts | 302° |
| 2026-04-24 19:44 | 4.99400 | -74.92760 | 20797 ft | 398 kts | 302° |
| 2026-04-24 19:44 | 5.00869 | -74.95123 | 21197 ft | 401 kts | 302° |
| 2026-04-24 19:44 | 5.02351 | -74.97505 | 21605 ft | 404 kts | 302° |
| 2026-04-24 19:45 | 5.03841 | -74.99901 | 22024 ft | 406 kts | 302° |
| 2026-04-24 19:45 | 5.05324 | -75.02287 | 22468 ft | 409 kts | 302° |
| 2026-04-24 19:45 | 5.06834 | -75.04711 | 22901 ft | 411 kts | 302° |
| 2026-04-24 19:45 | 5.08352 | -75.07146 | 23358 ft | 413 kts | 302° |
| 2026-04-24 19:46 | 5.09874 | -75.09593 | 23733 ft | 415 kts | 302° |
| 2026-04-24 19:46 | 5.11404 | -75.12060 | 24053 ft | 418 kts | 302° |
| 2026-04-24 19:46 | 5.12943 | -75.14543 | 24353 ft | 421 kts | 302° |
| 2026-04-24 19:46 | 5.14497 | -75.17046 | 24650 ft | 424 kts | 302° |
| 2026-04-24 19:47 | 5.16198 | -75.19472 | 24941 ft | 427 kts | 310° |
| 2026-04-24 19:47 | 5.18174 | -75.21710 | 25270 ft | 430 kts | 311° |
| 2026-04-24 19:47 | 5.20166 | -75.23954 | 25554 ft | 432 kts | 311° |
| 2026-04-24 19:47 | 5.22169 | -75.26215 | 25833 ft | 435 kts | 311° |
| 2026-04-24 19:48 | 5.24186 | -75.28499 | 26085 ft | 438 kts | 311° |
| 2026-04-24 19:48 | 5.26216 | -75.30796 | 26334 ft | 441 kts | 311° |
| 2026-04-24 19:48 | 5.30316 | -75.35427 | 26866 ft | 446 kts | 311° |
| 2026-04-24 19:49 | 5.34463 | -75.40113 | 27336 ft | 451 kts | 311° |
| 2026-04-24 19:49 | 5.38634 | -75.44844 | 27838 ft | 455 kts | 311° |
| 2026-04-24 19:50 | 5.44980 | -75.52037 | 28563 ft | 462 kts | 311° |
| 2026-04-24 19:50 | 5.47116 | -75.54455 | 28746 ft | 465 kts | 311° |
| 2026-04-24 19:51 | 5.51432 | -75.59335 | 29247 ft | 469 kts | 311° |
| 2026-04-24 19:51 | 5.53577 | -75.61757 | 29501 ft | 471 kts | 311° |
| 2026-04-24 19:52 | 5.57943 | -75.66700 | 29929 ft | 476 kts | 311° |
| 2026-04-24 19:52 | 5.60139 | -75.69193 | 30140 ft | 477 kts | 311° |
| 2026-04-24 19:52 | 5.62337 | -75.71689 | 30330 ft | 478 kts | 311° |
| 2026-04-24 19:52 | 5.64544 | -75.74192 | 30519 ft | 479 kts | 311° |
| 2026-04-24 19:53 | 5.66758 | -75.76703 | 30667 ft | 481 kts | 311° |
| 2026-04-24 19:53 | 5.68982 | -75.79226 | 30829 ft | 483 kts | 310° |
| 2026-04-24 19:53 | 5.72649 | -75.84833 | 31277 ft | 481 kts | 294° |
| 2026-04-24 19:54 | 5.74080 | -75.87868 | 31499 ft | 481 kts | 294° |
| 2026-04-24 19:54 | 5.75511 | -75.90898 | 31728 ft | 480 kts | 294° |
| 2026-04-24 19:54 | 5.76944 | -75.93929 | 31968 ft | 480 kts | 294° |
| 2026-04-24 19:54 | 5.78378 | -75.96957 | 32213 ft | 480 kts | 294° |
| 2026-04-24 19:55 | 5.79330 | -75.98963 | 32361 ft | 480 kts | 294° |
| 2026-04-24 19:55 | 5.81247 | -76.03010 | 32672 ft | 480 kts | 294° |
| 2026-04-24 19:55 | 5.82678 | -76.06038 | 32930 ft | 480 kts | 294° |
| 2026-04-24 19:55 | 5.84108 | -76.09067 | 33154 ft | 480 kts | 294° |
| 2026-04-24 19:56 | 5.85537 | -76.12091 | 33393 ft | 479 kts | 294° |
| 2026-04-24 19:56 | 5.86967 | -76.15114 | 33616 ft | 479 kts | 294° |
| 2026-04-24 19:56 | 5.88404 | -76.18145 | 33788 ft | 481 kts | 294° |
| 2026-04-24 19:56 | 5.89843 | -76.21185 | 33985 ft | 483 kts | 294° |
| 2026-04-24 19:57 | 5.91285 | -76.24231 | 34171 ft | 483 kts | 294° |
| 2026-04-24 19:57 | 5.92724 | -76.27274 | 34405 ft | 482 kts | 294° |
| 2026-04-24 19:57 | 5.94155 | -76.30309 | 34629 ft | 481 kts | 294° |
| 2026-04-24 19:57 | 5.95584 | -76.33338 | 34841 ft | 480 kts | 294° |
| 2026-04-24 19:58 | 5.97011 | -76.36361 | 35032 ft | 478 kts | 294° |
| 2026-04-24 19:58 | 5.98438 | -76.39380 | 35247 ft | 477 kts | 294° |
| 2026-04-24 19:58 | 5.99860 | -76.42387 | 35449 ft | 476 kts | 294° |
| 2026-04-24 19:58 | 6.01280 | -76.45389 | 35664 ft | 475 kts | 294° |
| 2026-04-24 19:59 | 6.02693 | -76.48381 | 35874 ft | 474 kts | 294° |
| 2026-04-24 19:59 | 6.05480 | -76.54303 | 35931 ft | 469 kts | 294° |
| 2026-04-24 20:00 | 6.08265 | -76.60218 | 35936 ft | 467 kts | 294° |
| 2026-04-24 20:00 | 6.11054 | -76.66116 | 35912 ft | 467 kts | 294° |
| 2026-04-24 20:01 | 6.13841 | -76.72018 | 35915 ft | 467 kts | 294° |
| 2026-04-24 20:01 | 6.16616 | -76.77923 | 35914 ft | 467 kts | 294° |
| 2026-04-24 20:02 | 6.18942 | -76.82871 | 35915 ft | 467 kts | 294° |
| 2026-04-24 20:02 | 6.22171 | -76.89738 | 35923 ft | 467 kts | 294° |
| 2026-04-24 20:03 | 6.24946 | -76.95637 | 35923 ft | 466 kts | 294° |
| 2026-04-24 20:03 | 6.27717 | -77.01526 | 35921 ft | 466 kts | 294° |
| 2026-04-24 20:04 | 6.30490 | -77.07409 | 35920 ft | 465 kts | 294° |
| 2026-04-24 20:04 | 6.33259 | -77.13283 | 35929 ft | 465 kts | 293° |
| 2026-04-24 20:05 | 6.36024 | -77.19151 | 35929 ft | 464 kts | 293° |
| 2026-04-24 20:05 | 6.38758 | -77.24981 | 35925 ft | 464 kts | 293° |
| 2026-04-24 20:06 | 6.41503 | -77.30839 | 35931 ft | 463 kts | 293° |
| 2026-04-24 20:06 | 6.44247 | -77.36686 | 35931 ft | 462 kts | 293° |
| 2026-04-24 20:07 | 6.46542 | -77.41578 | 35921 ft | 462 kts | 293° |
| 2026-04-24 20:07 | 6.49729 | -77.48358 | 35924 ft | 461 kts | 293° |
| 2026-04-24 20:08 | 6.52469 | -77.54193 | 35923 ft | 461 kts | 293° |
| 2026-04-24 20:08 | 6.55205 | -77.60031 | 35921 ft | 461 kts | 293° |
| 2026-04-24 20:09 | 6.57934 | -77.65864 | 35923 ft | 461 kts | 293° |
| 2026-04-24 20:09 | 6.60666 | -77.71690 | 35916 ft | 460 kts | 293° |
| 2026-04-24 20:10 | 6.63398 | -77.77507 | 35914 ft | 460 kts | 293° |
| 2026-04-24 20:10 | 6.66123 | -77.83323 | 35914 ft | 460 kts | 293° |
| 2026-04-24 20:11 | 6.68841 | -77.89140 | 35912 ft | 459 kts | 293° |
| 2026-04-24 20:11 | 6.71560 | -77.94957 | 35912 ft | 459 kts | 293° |
| 2026-04-24 20:12 | 6.74275 | -78.00768 | 35919 ft | 459 kts | 293° |
| 2026-04-24 20:12 | 6.76537 | -78.05590 | 35920 ft | 458 kts | 293° |
| 2026-04-24 20:13 | 6.79714 | -78.12365 | 35914 ft | 457 kts | 293° |
| 2026-04-24 20:13 | 6.82401 | -78.18115 | 35912 ft | 457 kts | 293° |
| 2026-04-24 20:14 | 6.85331 | -78.23788 | 35913 ft | 458 kts | 299° |
| 2026-04-24 20:14 | 6.88581 | -78.29299 | 35909 ft | 458 kts | 299° |
| 2026-04-24 20:15 | 6.91831 | -78.34812 | 35909 ft | 458 kts | 299° |
| 2026-04-24 20:15 | 6.94534 | -78.39399 | 35908 ft | 458 kts | 299° |
| 2026-04-24 20:16 | 6.97775 | -78.44915 | 35904 ft | 458 kts | 299° |
| 2026-04-24 20:16 | 7.01020 | -78.50427 | 35906 ft | 458 kts | 299° |
| 2026-04-24 20:17 | 7.04268 | -78.55942 | 35901 ft | 458 kts | 299° |
| 2026-04-24 20:17 | 7.09137 | -78.64224 | 35910 ft | 458 kts | 299° |
| 2026-04-24 20:18 | 7.12377 | -78.69745 | 35912 ft | 458 kts | 299° |
| 2026-04-24 20:18 | 7.15623 | -78.75266 | 35910 ft | 458 kts | 299° |
| 2026-04-24 20:19 | 7.18870 | -78.80788 | 35909 ft | 458 kts | 299° |
| 2026-04-24 20:19 | 7.22112 | -78.86309 | 35911 ft | 458 kts | 299° |
| 2026-04-24 20:20 | 7.25351 | -78.91827 | 35911 ft | 458 kts | 299° |
| 2026-04-24 20:20 | 7.28593 | -78.97351 | 35906 ft | 458 kts | 299° |
| 2026-04-24 20:21 | 7.31836 | -79.02876 | 35908 ft | 458 kts | 299° |
| 2026-04-24 20:21 | 7.35046 | -79.08360 | 35913 ft | 457 kts | 299° |
| 2026-04-24 20:22 | 7.38274 | -79.13877 | 35901 ft | 457 kts | 299° |
| 2026-04-24 20:22 | 7.41511 | -79.19392 | 35907 ft | 457 kts | 299° |
| 2026-04-24 20:23 | 7.44745 | -79.24903 | 35902 ft | 457 kts | 299° |
| 2026-04-24 20:23 | 7.47976 | -79.30415 | 35906 ft | 457 kts | 299° |
| 2026-04-24 20:24 | 7.51202 | -79.35928 | 35913 ft | 456 kts | 299° |
| 2026-04-24 20:24 | 7.54419 | -79.41439 | 35903 ft | 456 kts | 299° |
| 2026-04-24 20:25 | 7.57639 | -79.46941 | 35913 ft | 456 kts | 299° |
| 2026-04-24 20:25 | 7.60859 | -79.52442 | 35907 ft | 455 kts | 299° |
| 2026-04-24 20:26 | 7.64074 | -79.57943 | 35905 ft | 455 kts | 299° |
| 2026-04-24 20:26 | 7.67285 | -79.63439 | 35896 ft | 455 kts | 299° |
| 2026-04-24 20:27 | 7.70496 | -79.68928 | 35900 ft | 455 kts | 299° |
| 2026-04-24 20:27 | 7.73704 | -79.74425 | 35901 ft | 455 kts | 299° |
| 2026-04-24 20:28 | 7.76914 | -79.79919 | 35902 ft | 454 kts | 299° |
| 2026-04-24 20:28 | 7.80120 | -79.85409 | 35904 ft | 454 kts | 299° |
| 2026-04-24 20:29 | 7.83319 | -79.90900 | 35895 ft | 454 kts | 299° |
| 2026-04-24 20:29 | 7.86497 | -79.96358 | 35894 ft | 454 kts | 299° |
| 2026-04-24 20:30 | 7.89699 | -80.01843 | 35896 ft | 454 kts | 298° |
| 2026-04-24 20:30 | 7.92903 | -80.07341 | 35889 ft | 454 kts | 299° |
| 2026-04-24 20:31 | 7.96107 | -80.12841 | 35892 ft | 455 kts | 298° |
| 2026-04-24 20:31 | 7.99304 | -80.18341 | 35889 ft | 454 kts | 299° |
| 2026-04-24 20:32 | 8.02503 | -80.23840 | 35901 ft | 454 kts | 299° |
| 2026-04-24 20:32 | 8.05700 | -80.29333 | 35889 ft | 454 kts | 299° |
| 2026-04-24 20:33 | 8.08894 | -80.34824 | 35890 ft | 454 kts | 299° |
| 2026-04-24 20:33 | 8.12088 | -80.40314 | 35895 ft | 454 kts | 299° |
| 2026-04-24 20:34 | 8.15282 | -80.45808 | 35894 ft | 454 kts | 299° |
| 2026-04-24 20:34 | 8.18475 | -80.51307 | 35885 ft | 454 kts | 299° |
| 2026-04-24 20:35 | 8.21646 | -80.56768 | 35894 ft | 454 kts | 299° |
| 2026-04-24 20:35 | 8.24854 | -80.62298 | 35902 ft | 453 kts | 299° |
| 2026-04-24 20:36 | 8.28007 | -80.67740 | 35909 ft | 451 kts | 299° |
| 2026-04-24 20:36 | 8.31176 | -80.73202 | 35908 ft | 450 kts | 299° |
| 2026-04-24 20:37 | 8.34336 | -80.78655 | 35911 ft | 449 kts | 299° |
| 2026-04-24 20:37 | 8.37494 | -80.84099 | 35905 ft | 449 kts | 299° |
| 2026-04-24 20:38 | 8.40649 | -80.89537 | 35904 ft | 449 kts | 299° |
| 2026-04-24 20:38 | 8.43798 | -80.94981 | 35922 ft | 448 kts | 299° |
| 2026-04-24 20:39 | 8.46937 | -81.00422 | 35923 ft | 448 kts | 299° |
| 2026-04-24 20:39 | 8.50081 | -81.05855 | 35922 ft | 448 kts | 299° |
| 2026-04-24 20:40 | 8.53210 | -81.11251 | 35923 ft | 448 kts | 299° |
| 2026-04-24 20:40 | 8.56350 | -81.16678 | 35920 ft | 447 kts | 299° |
| 2026-04-24 20:41 | 8.59486 | -81.22107 | 35924 ft | 447 kts | 299° |
| 2026-04-24 20:41 | 8.62620 | -81.27532 | 35930 ft | 447 kts | 299° |
| 2026-04-24 20:42 | 8.65749 | -81.32953 | 35929 ft | 446 kts | 298° |
| 2026-04-24 20:42 | 8.68880 | -81.38373 | 35929 ft | 447 kts | 298° |
| 2026-04-24 20:43 | 8.72011 | -81.43803 | 35926 ft | 447 kts | 298° |
| 2026-04-24 20:43 | 8.75141 | -81.49236 | 35928 ft | 447 kts | 298° |
| 2026-04-24 20:44 | 8.78271 | -81.54668 | 35935 ft | 447 kts | 298° |
| 2026-04-24 20:44 | 8.81396 | -81.60098 | 35935 ft | 447 kts | 298° |
| 2026-04-24 20:45 | 8.84525 | -81.65524 | 35931 ft | 446 kts | 298° |
| 2026-04-24 20:45 | 8.87652 | -81.70941 | 35920 ft | 446 kts | 298° |
| 2026-04-24 20:46 | 8.90773 | -81.76357 | 35923 ft | 445 kts | 298° |
| 2026-04-24 20:46 | 8.93861 | -81.81726 | 35923 ft | 444 kts | 298° |
| 2026-04-24 20:47 | 8.96980 | -81.87164 | 35920 ft | 444 kts | 298° |
| 2026-04-24 20:47 | 9.00059 | -81.92526 | 35919 ft | 444 kts | 298° |
| 2026-04-24 20:48 | 9.03163 | -81.97928 | 35905 ft | 444 kts | 298° |
| 2026-04-24 20:48 | 9.06272 | -82.03338 | 35901 ft | 445 kts | 298° |
| 2026-04-24 20:49 | 9.09380 | -82.08746 | 35894 ft | 445 kts | 298° |
| 2026-04-24 20:49 | 9.12491 | -82.14161 | 35906 ft | 445 kts | 298° |
| 2026-04-24 20:50 | 9.15596 | -82.19582 | 35895 ft | 446 kts | 298° |
| 2026-04-24 20:50 | 9.18705 | -82.25008 | 35897 ft | 445 kts | 298° |
| 2026-04-24 20:51 | 9.21817 | -82.30438 | 35896 ft | 445 kts | 298° |
| 2026-04-24 20:51 | 9.24926 | -82.35858 | 35897 ft | 445 kts | 298° |
| 2026-04-24 20:52 | 9.28032 | -82.41286 | 35910 ft | 445 kts | 298° |
| 2026-04-24 20:52 | 9.31133 | -82.46707 | 35903 ft | 445 kts | 298° |
| 2026-04-24 20:53 | 9.34233 | -82.52119 | 35901 ft | 444 kts | 298° |
| 2026-04-24 20:53 | 9.37301 | -82.57499 | 35917 ft | 444 kts | 298° |
| 2026-04-24 20:54 | 9.40390 | -82.62906 | 35920 ft | 443 kts | 298° |
| 2026-04-24 20:54 | 9.43480 | -82.68314 | 35921 ft | 443 kts | 298° |
| 2026-04-24 20:55 | 9.46562 | -82.73717 | 35912 ft | 443 kts | 298° |
| 2026-04-24 20:55 | 9.49648 | -82.79117 | 35911 ft | 443 kts | 298° |
| 2026-04-24 20:56 | 9.52731 | -82.84517 | 35913 ft | 443 kts | 298° |
| 2026-04-24 20:56 | 9.55167 | -82.90196 | 35930 ft | 439 kts | 286° |
| 2026-04-24 20:57 | 9.57022 | -82.96095 | 35931 ft | 439 kts | 286° |
| 2026-04-24 20:57 | 9.58887 | -83.01996 | 35955 ft | 440 kts | 286° |
| 2026-04-24 20:58 | 9.60761 | -83.07897 | 35957 ft | 440 kts | 286° |
| 2026-04-24 20:58 | 9.62626 | -83.13801 | 35932 ft | 440 kts | 286° |
| 2026-04-24 20:59 | 9.64474 | -83.19668 | 35954 ft | 440 kts | 287° |
| 2026-04-24 20:59 | 9.66351 | -83.25579 | 35955 ft | 441 kts | 287° |
| 2026-04-24 21:00 | 9.68223 | -83.31496 | 35981 ft | 441 kts | 287° |
| 2026-04-24 21:00 | 9.70088 | -83.37419 | 35985 ft | 441 kts | 287° |
| 2026-04-24 21:01 | 9.71957 | -83.43372 | 35953 ft | 445 kts | 287° |
| 2026-04-24 21:01 | 9.73841 | -83.49361 | 35965 ft | 448 kts | 287° |
| 2026-04-24 21:02 | 9.75737 | -83.55396 | 35965 ft | 450 kts | 287° |
| 2026-04-24 21:02 | 9.77638 | -83.61459 | 35962 ft | 452 kts | 286° |
| 2026-04-24 21:03 | 9.79532 | -83.67496 | 35976 ft | 453 kts | 286° |
| 2026-04-24 21:03 | 9.81441 | -83.73582 | 35989 ft | 453 kts | 286° |
| 2026-04-24 21:04 | 9.83387 | -83.79645 | 36010 ft | 452 kts | 287° |
| 2026-04-24 21:04 | 9.85116 | -83.84697 | 36029 ft | 452 kts | 288° |
| 2026-04-24 21:05 | 9.87206 | -83.90712 | 36050 ft | 452 kts | 288° |
| 2026-04-24 21:05 | 9.89269 | -83.96736 | 36070 ft | 452 kts | 288° |
| 2026-04-24 21:06 | 9.91309 | -84.02764 | 36084 ft | 452 kts | 287° |
| 2026-04-24 21:06 | 9.93344 | -84.08787 | 36091 ft | 451 kts | 287° |
| 2026-04-24 21:07 | 9.95380 | -84.14808 | 36090 ft | 451 kts | 287° |
| 2026-04-24 21:07 | 9.97397 | -84.20758 | 36080 ft | 451 kts | 287° |
| 2026-04-24 21:08 | 9.99783 | -84.26646 | 36082 ft | 452 kts | 294° |
| 2026-04-24 21:08 | 10.02496 | -84.32404 | 36076 ft | 452 kts | 294° |
| 2026-04-24 21:09 | 10.05208 | -84.38150 | 35972 ft | 451 kts | 294° |
| 2026-04-24 21:09 | 10.07903 | -84.43877 | 35966 ft | 449 kts | 294° |
| 2026-04-24 21:10 | 10.10587 | -84.49595 | 35952 ft | 449 kts | 294° |
| 2026-04-24 21:10 | 10.13270 | -84.55312 | 35945 ft | 448 kts | 294° |
| 2026-04-24 21:11 | 10.15948 | -84.61028 | 35942 ft | 448 kts | 294° |
| 2026-04-24 21:11 | 10.18628 | -84.66734 | 35959 ft | 447 kts | 294° |
| 2026-04-24 21:12 | 10.21285 | -84.72395 | 35942 ft | 447 kts | 294° |
| 2026-04-24 21:12 | 10.23941 | -84.78096 | 35930 ft | 446 kts | 294° |
| 2026-04-24 21:13 | 10.26593 | -84.83801 | 35924 ft | 446 kts | 294° |
| 2026-04-24 21:13 | 10.29241 | -84.89500 | 35921 ft | 446 kts | 294° |
| 2026-04-24 21:14 | 10.31886 | -84.95197 | 35921 ft | 446 kts | 294° |
| 2026-04-24 21:14 | 10.34536 | -85.00894 | 35911 ft | 446 kts | 294° |
| 2026-04-24 21:15 | 10.37186 | -85.06592 | 35914 ft | 446 kts | 294° |
| 2026-04-24 21:15 | 10.39829 | -85.12279 | 35919 ft | 445 kts | 294° |
| 2026-04-24 21:16 | 10.42464 | -85.17967 | 35917 ft | 445 kts | 294° |
| 2026-04-24 21:16 | 10.45092 | -85.23648 | 35917 ft | 444 kts | 294° |
| 2026-04-24 21:17 | 10.47720 | -85.29329 | 35911 ft | 444 kts | 294° |
| 2026-04-24 21:17 | 10.50329 | -85.34965 | 35909 ft | 444 kts | 294° |
| 2026-04-24 21:18 | 10.52952 | -85.40641 | 35903 ft | 444 kts | 294° |
| 2026-04-24 21:18 | 10.55573 | -85.46313 | 35909 ft | 443 kts | 294° |
| 2026-04-24 21:19 | 10.58188 | -85.51975 | 35911 ft | 442 kts | 294° |
| 2026-04-24 21:19 | 10.61499 | -85.57232 | 35912 ft | 444 kts | 308° |
| 2026-04-24 21:20 | 10.67349 | -85.64520 | 35913 ft | 443 kts | 307° |
| 2026-04-24 21:21 | 10.71240 | -85.69386 | 35911 ft | 443 kts | 307° |
| 2026-04-24 21:21 | 10.75125 | -85.74249 | 35909 ft | 443 kts | 307° |
| 2026-04-24 21:22 | 10.79041 | -85.79087 | 35907 ft | 443 kts | 309° |
| 2026-04-24 21:22 | 10.83075 | -85.83830 | 35906 ft | 443 kts | 309° |
| 2026-04-24 21:23 | 10.87134 | -85.88555 | 35904 ft | 444 kts | 309° |
| 2026-04-24 21:23 | 10.91119 | -85.93347 | 35905 ft | 443 kts | 308° |
| 2026-04-24 21:24 | 10.95030 | -85.98201 | 35902 ft | 443 kts | 308° |
| 2026-04-24 21:24 | 10.98940 | -86.03053 | 35904 ft | 443 kts | 308° |
| 2026-04-24 21:25 | 11.02869 | -86.07890 | 35898 ft | 443 kts | 308° |
| 2026-04-24 21:25 | 11.06811 | -86.12724 | 35898 ft | 443 kts | 308° |
| 2026-04-24 21:26 | 11.10724 | -86.17530 | 35902 ft | 444 kts | 308° |
| 2026-04-24 21:26 | 11.14654 | -86.22372 | 35903 ft | 444 kts | 308° |
| 2026-04-24 21:27 | 11.18592 | -86.27209 | 35906 ft | 444 kts | 308° |
| 2026-04-24 21:27 | 11.22529 | -86.32056 | 35907 ft | 444 kts | 308° |
| 2026-04-24 21:28 | 11.26454 | -86.36910 | 35907 ft | 444 kts | 308° |
| 2026-04-24 21:28 | 11.30381 | -86.41758 | 35908 ft | 443 kts | 308° |
| 2026-04-24 21:29 | 11.34308 | -86.46593 | 35907 ft | 442 kts | 308° |
| 2026-04-24 21:29 | 11.38231 | -86.51425 | 35907 ft | 442 kts | 308° |
| 2026-04-24 21:30 | 11.42116 | -86.56222 | 35907 ft | 441 kts | 307° |
| 2026-04-24 21:30 | 11.46016 | -86.61043 | 35909 ft | 440 kts | 308° |
| 2026-04-24 21:31 | 11.49910 | -86.65860 | 35911 ft | 440 kts | 308° |
| 2026-04-24 21:31 | 11.53804 | -86.70679 | 35909 ft | 440 kts | 308° |
| 2026-04-24 21:32 | 11.57696 | -86.75494 | 35907 ft | 440 kts | 308° |
| 2026-04-24 21:32 | 11.61584 | -86.80309 | 35908 ft | 440 kts | 308° |
| 2026-04-24 21:33 | 11.65476 | -86.85125 | 35903 ft | 439 kts | 308° |
| 2026-04-24 21:33 | 11.69332 | -86.89906 | 35911 ft | 438 kts | 307° |
| 2026-04-24 21:34 | 11.73203 | -86.94701 | 35912 ft | 437 kts | 308° |
| 2026-04-24 21:34 | 11.77063 | -86.99481 | 35913 ft | 436 kts | 307° |
| 2026-04-24 21:35 | 11.80914 | -87.04254 | 35908 ft | 435 kts | 308° |
| 2026-04-24 21:35 | 11.84772 | -87.09038 | 35834 ft | 437 kts | 307° |
| 2026-04-24 21:36 | 11.88591 | -87.13791 | 35891 ft | 435 kts | 307° |
| 2026-04-24 21:36 | 11.92422 | -87.18560 | 35887 ft | 434 kts | 307° |
| 2026-04-24 21:37 | 11.96258 | -87.23329 | 35886 ft | 434 kts | 307° |
| 2026-04-24 21:37 | 12.00090 | -87.28105 | 35887 ft | 434 kts | 307° |
| 2026-04-24 21:38 | 12.03924 | -87.32876 | 35897 ft | 434 kts | 307° |
| 2026-04-24 21:38 | 12.07762 | -87.37647 | 35900 ft | 434 kts | 307° |
| 2026-04-24 21:39 | 12.11570 | -87.42382 | 35902 ft | 434 kts | 307° |
| 2026-04-24 21:39 | 12.15395 | -87.47155 | 35900 ft | 434 kts | 307° |
| 2026-04-24 21:40 | 12.19186 | -87.51891 | 35895 ft | 433 kts | 307° |
| 2026-04-24 21:40 | 12.23006 | -87.56657 | 35895 ft | 433 kts | 307° |
| 2026-04-24 21:41 | 12.26821 | -87.61418 | 35890 ft | 433 kts | 307° |
| 2026-04-24 21:41 | 12.30641 | -87.66181 | 35887 ft | 433 kts | 307° |
| 2026-04-24 21:41 | 12.32552 | -87.68564 | 35684 ft | 434 kts | 307° |
| 2026-04-24 21:42 | 12.34478 | -87.70969 | 34635 ft | 442 kts | 307° |
| 2026-04-24 21:42 | 12.36426 | -87.73407 | 34057 ft | 438 kts | 307° |
| 2026-04-24 21:42 | 12.38325 | -87.75778 | 33965 ft | 423 kts | 307° |
| 2026-04-24 21:42 | 12.40163 | -87.78071 | 33885 ft | 412 kts | 307° |
| 2026-04-24 21:43 | 12.41988 | -87.80359 | 33799 ft | 417 kts | 307° |
| 2026-04-24 21:43 | 12.45674 | -87.84986 | 33132 ft | 424 kts | 307° |
| 2026-04-24 21:43 | 12.47517 | -87.87296 | 33618 ft | 428 kts | 308° |
| 2026-04-24 21:44 | 12.49438 | -87.89704 | 31275 ft | 441 kts | 308° |
| 2026-04-24 21:44 | 12.51387 | -87.92145 | 30341 ft | 445 kts | 308° |
| 2026-04-24 21:44 | 12.53358 | -87.94613 | 29219 ft | 451 kts | 309° |
| 2026-04-24 21:44 | 12.55351 | -87.97111 | 28119 ft | 454 kts | 309° |
| 2026-04-24 21:45 | 12.57518 | -87.99476 | 26945 ft | 459 kts | 315° |
| 2026-04-24 21:45 | 12.59799 | -88.01783 | 25795 ft | 463 kts | 316° |
| 2026-04-24 21:45 | 12.62056 | -88.04067 | 24962 ft | 460 kts | 316° |
| 2026-04-24 21:45 | 12.64323 | -88.06362 | 24143 ft | 457 kts | 316° |
| 2026-04-24 21:46 | 12.66576 | -88.08645 | 23320 ft | 454 kts | 317° |
| 2026-04-24 21:46 | 12.67625 | -88.09710 | 22888 ft | 453 kts | 317° |
| 2026-04-24 21:46 | 12.69827 | -88.11943 | 22144 ft | 448 kts | 316° |
| 2026-04-24 21:46 | 12.72032 | -88.14180 | 21412 ft | 444 kts | 316° |
| 2026-04-24 21:47 | 12.74216 | -88.16396 | 20709 ft | 440 kts | 316° |
| 2026-04-24 21:47 | 12.75680 | -88.17884 | 20231 ft | 437 kts | 316° |
| 2026-04-24 21:47 | 12.78527 | -88.20782 | 19313 ft | 433 kts | 315° |
| 2026-04-24 21:47 | 12.80658 | -88.22952 | 18761 ft | 427 kts | 315° |
| 2026-04-24 21:48 | 12.82750 | -88.25078 | 18211 ft | 422 kts | 315° |
| 2026-04-24 21:48 | 12.84829 | -88.27192 | 17564 ft | 419 kts | 315° |
| 2026-04-24 21:48 | 12.86876 | -88.29281 | 17004 ft | 413 kts | 314° |
| 2026-04-24 21:48 | 12.88859 | -88.31389 | 16468 ft | 408 kts | 313° |
| 2026-04-24 21:49 | 12.90781 | -88.33510 | 15914 ft | 404 kts | 313° |
| 2026-04-24 21:49 | 12.92663 | -88.35626 | 15389 ft | 400 kts | 312° |
| 2026-04-24 21:49 | 12.94528 | -88.37736 | 14838 ft | 397 kts | 313° |
| 2026-04-24 21:49 | 12.96380 | -88.39821 | 14284 ft | 394 kts | 313° |
| 2026-04-24 21:50 | 12.98230 | -88.41887 | 13704 ft | 392 kts | 313° |
| 2026-04-24 21:50 | 13.00077 | -88.43939 | 13071 ft | 390 kts | 313° |
| 2026-04-24 21:50 | 13.01913 | -88.45971 | 12442 ft | 387 kts | 313° |
| 2026-04-24 21:50 | 13.03713 | -88.47957 | 11814 ft | 384 kts | 313° |
| 2026-04-24 21:51 | 13.05521 | -88.49954 | 11174 ft | 381 kts | 313° |
| 2026-04-24 21:51 | 13.07292 | -88.51916 | 10929 ft | 366 kts | 313° |
| 2026-04-24 21:51 | 13.08983 | -88.53792 | 10809 ft | 350 kts | 313° |
| 2026-04-24 21:51 | 13.10600 | -88.55582 | 10698 ft | 335 kts | 313° |
| 2026-04-24 21:52 | 13.12149 | -88.57297 | 10574 ft | 321 kts | 313° |
| 2026-04-24 21:52 | 13.13637 | -88.58948 | 10455 ft | 309 kts | 313° |
| 2026-04-24 21:52 | 13.15068 | -88.60536 | 10315 ft | 298 kts | 313° |
| 2026-04-24 21:52 | 13.16462 | -88.62083 | 10061 ft | 293 kts | 313° |
| 2026-04-24 21:53 | 13.17831 | -88.63603 | 9914 ft | 288 kts | 313° |
| 2026-04-24 21:53 | 13.19191 | -88.65114 | 9716 ft | 291 kts | 313° |
| 2026-04-24 21:53 | 13.20107 | -88.66133 | 9371 ft | 293 kts | 313° |
| 2026-04-24 21:53 | 13.21944 | -88.68174 | 8803 ft | 292 kts | 313° |
| 2026-04-24 21:54 | 13.22852 | -88.69184 | 8570 ft | 290 kts | 313° |
| 2026-04-24 21:54 | 13.24214 | -88.70693 | 8171 ft | 285 kts | 312° |
| 2026-04-24 21:54 | 13.25549 | -88.72172 | 7545 ft | 281 kts | 312° |
| 2026-04-24 21:54 | 13.26873 | -88.73643 | 6877 ft | 279 kts | 311° |
| 2026-04-24 21:55 | 13.28177 | -88.75092 | 6292 ft | 274 kts | 311° |
| 2026-04-24 21:55 | 13.29464 | -88.76520 | 5650 ft | 271 kts | 310° |
| 2026-04-24 21:55 | 13.30734 | -88.77930 | 5109 ft | 268 kts | 310° |
| 2026-04-24 21:55 | 13.31990 | -88.79327 | 4607 ft | 264 kts | 311° |
| 2026-04-24 21:56 | 13.33233 | -88.80713 | 4097 ft | 263 kts | 310° |
| 2026-04-24 21:56 | 13.34468 | -88.82093 | 3647 ft | 259 kts | 310° |
| 2026-04-24 21:56 | 13.35626 | -88.83382 | 3615 ft | 233 kts | 309° |
| 2026-04-24 21:56 | 13.36695 | -88.84567 | 3526 ft | 223 kts | 309° |
| 2026-04-24 21:57 | 13.37745 | -88.85735 | 3444 ft | 222 kts | 309° |
| 2026-04-24 21:57 | 13.38787 | -88.86897 | 3349 ft | 221 kts | 310° |
| 2026-04-24 21:57 | 13.39821 | -88.88052 | 3252 ft | 219 kts | 310° |
| 2026-04-24 21:57 | 13.40839 | -88.89188 | 3157 ft | 209 kts | 310° |
| 2026-04-24 21:58 | 13.41778 | -88.90229 | 3099 ft | 186 kts | 310° |
| 2026-04-24 21:58 | 13.42600 | -88.91136 | 3015 ft | 162 kts | 310° |
| 2026-04-24 21:58 | 13.43334 | -88.91949 | 2751 ft | 148 kts | 309° |
| 2026-04-24 21:58 | 13.44018 | -88.92710 | 2546 ft | 143 kts | 309° |
| 2026-04-24 21:59 | 13.44682 | -88.93448 | 2354 ft | 139 kts | 309° |
| 2026-04-24 21:59 | 13.45332 | -88.94173 | 2166 ft | 137 kts | 309° |
| 2026-04-24 21:59 | 13.45888 | -88.94939 | 1987 ft | 135 kts | 297° |
| 2026-04-24 21:59 | 13.46292 | -88.95805 | 1803 ft | 134 kts | 287° |
| 2026-04-24 22:00 | 13.46530 | -88.96725 | 1630 ft | 133 kts | 278° |
| 2026-04-24 22:00 | 13.46603 | -88.97659 | 1450 ft | 133 kts | 267° |
| 2026-04-24 22:00 | 13.46508 | -88.98616 | 1275 ft | 133 kts | 256° |
| 2026-04-24 22:00 | 13.46251 | -88.99519 | 1100 ft | 132 kts | 247° |
| 2026-04-24 22:01 | 13.45934 | -89.00406 | 936 ft | 133 kts | 249° |
| 2026-04-24 22:01 | 13.45619 | -89.01296 | 767 ft | 132 kts | 247° |
| 2026-04-24 22:01 | 13.45306 | -89.02189 | 585 ft | 133 kts | 247° |
| 2026-04-24 22:01 | 13.44983 | -89.03080 | 371 ft | 134 kts | 249° |
| 2026-04-24 22:02 | 13.44662 | -89.03975 | 182 ft | 133 kts | 248° |
| 2026-04-24 22:02 | 13.44353 | -89.04832 | 101 ft | 116 kts | 248° |
| 2026-04-24 22:02 | 13.44135 | -89.05449 | 91 ft | 67 kts | 250° |
| 2026-04-24 22:02 | 13.44032 | -89.05739 | 91 ft | 24 kts | 252° |
| 2026-04-24 22:03 | 13.44048 | -89.05848 | 91 ft | 10 kts | 332° |
| 2026-04-24 22:03 | 13.44101 | -89.05868 | 91 ft | 7 kts | 339° |
| 2026-04-24 22:03 | 13.44144 | -89.05886 | 93 ft | 9 kts | 339° |
| 2026-04-24 22:03 | 13.44208 | -89.05911 | 92 ft | 8 kts | 339° |
| 2026-04-24 22:04 | 13.44261 | -89.05932 | 92 ft | 10 kts | 340° |
| 2026-04-24 22:04 | 13.44307 | -89.05949 | 93 ft | 7 kts | 341° |
| 2026-04-24 22:04 | 13.44327 | -89.05956 | 92 ft | 3 kts | 341° |
| 2026-04-24 22:04 | 13.44329 | -89.05956 | 92 ft | 0 kts | 341° |